Date,TemperatureHighF,TemperatureAvgF,TemperatureLowF,DewpointHighF,DewpointAvgF,DewpointLowF,HumidityHigh,HumidityAvg,HumidityLow,PressureMaxIn,PressureMinIn,WindSpeedMaxMPH,WindSpeedAvgMPH,GustSpeedMaxMPH,PrecipitationSumIn
2013-12-1,36.0,28.0,16.0,23.8,18.2,10.4,80,67,53,29.96,29.69,2,0,4,0.00
2013-12-2,44.0,36.2,32.0,27.4,25.0,22.9,76,64,46,29.69,29.56,2,0,4,0.00
2013-12-3,54.0,38.5,30.0,33.9,28.2,23.4,80,68,40,29.72,29.56,3,1,6,0.00
2013-12-4,54.0,41.8,28.0,40.2,32.3,22.6,83,70,50,29.85,29.65,5,1,7,0.00
2013-12-5,62.0,52.8,46.0,49.8,44.4,38.2,80,73,61,29.81,29.70,9,1,11,0.00
2013-12-6,57.0,43.9,35.0,51.2,37.0,27.9,81,77,69,29.87,29.66,12,4,19,1.53
2013-12-7,37.0,32.5,25.0,28.2,21.0,11.9,79,63,46,30.16,29.83,17,5,22,0.00
2013-12-8,124.0,24.0,20.0,99.9,15.4,8.9,81,70,52,30.19,20.49,7,2,12,0.00
2013-12-9,36.0,29.3,24.0,28.8,23.7,19.0,83,79,72,29.94,29.68,3,1,8,0.09
2013-12-10,99.0,30.0,22.0,99.9,18.5,4.6,100,63,39,29.79,29.64,16,4,23,0.85
2013-12-11,36.0,21.4,11.0,14.8,7.0,3.1,75,56,29,30.01,29.78,17,2,22,0.01
2013-12-12,30.0,20.9,10.0,14.1,0.7,-10.3,62,42,21,30.03,29.74,22,5,22,0.00
2013-12-13,38.0,23.9,9.0,11.4,6.0,-0.8,71,48,29,29.92,29.73,22,3,22,0.00
2013-12-14,31.0,26.7,21.0,26.1,18.4,10.0,82,71,53,29.98,29.40,9,2,9,0.00
2013-12-15,39.0,31.4,28.0,28.5,21.0,12.7,82,66,47,29.56,29.28,28,3,29,0.00
2013-12-16,32.0,26.1,23.0,16.8,10.7,6.2,62,52,43,29.80,29.55,27,4,27,0.00
2013-12-17,35.0,24.0,15.0,25.1,16.9,9.4,80,74,61,29.79,29.54,4,0,5,0.00
2013-12-18,34.0,27.7,16.0,21.7,13.6,8.3,81,56,39,29.82,29.59,22,4,24,0.00
2013-12-19,49.0,27.8,13.0,25.5,16.4,7.4,79,65,31,29.81,29.70,5,1,6,0.00
2013-12-20,49.0,37.3,29.0,33.4,25.5,22.1,78,64,37,29.79,29.67,4,1,6,0.00
2013-12-21,64.0,43.8,35.0,44.9,34.4,27.5,80,70,47,29.77,29.60,6,1,6,0.00
2013-12-22,67.0,58.0,48.0,55.4,50.6,42.1,82,77,62,29.78,29.57,27,3,27,0.00
2013-12-23,55.0,47.2,31.0,49.6,36.5,16.4,83,67,49,29.90,29.71,31,4,31,0.00
2013-12-24,36.0,26.7,18.0,20.4,10.9,-1.8,76,52,33,30.04,29.81,28,6,28,0.00
2013-12-25,27.0,20.7,13.0,10.2,5.0,0.2,64,50,38,30.17,29.94,12,3,12,0.00
2013-12-26,41.0,26.2,17.0,21.6,14.4,7.2,78,62,34,29.95,29.84,22,2,22,0.00
2013-12-27,48.0,29.8,17.0,21.8,12.4,4.4,78,54,18,30.06,29.91,19,2,19,0.00
2013-12-28,57.0,38.4,22.0,24.2,17.5,12.6,73,47,19,29.99,29.75,22,3,22,0.00
2013-12-29,46.0,39.7,36.0,38.2,30.4,18.3,81,70,34,29.76,29.28,26,2,26,0.00
2013-12-30,44.0,34.6,26.0,35.3,20.2,7.1,82,56,44,29.79,29.48,26,6,26,0.00
2013-12-31,38.0,26.8,18.0,18.6,10.8,5.7,70,51,34,29.88,29.71,39,4,39,0.00